createdAt,value
2019-03-08T00:02:02.375Z,24.53
2019-03-08T00:07:28.592Z,23.87
2019-03-08T00:09:58.125Z,20.50
2019-03-08T00:15:51.073Z,21.60
2019-03-08T00:18:20.306Z,25.53
2019-03-08T00:20:53.253Z,25.13
2019-03-08T00:23:26.604Z,21.67
2019-03-08T00:26:04.446Z,26.60
2019-03-08T00:28:37.487Z,25.50
2019-03-08T00:31:15.299Z,28.43
2019-03-08T00:33:49.751Z,27.73
2019-03-08T00:39:15.163Z,25.90
2019-03-08T00:41:44.337Z,28.47
2019-03-08T00:44:17.637Z,28.17
2019-03-08T00:46:47.441Z,23.80
2019-03-08T00:49:27.526Z,28.33
2019-03-08T00:52:02.587Z,22.83
2019-03-08T00:54:35.761Z,21.37
2019-03-08T00:57:09.061Z,22.33
2019-03-08T00:59:37.892Z,25.07
2019-03-08T01:02:08.487Z,25.27
2019-03-08T01:04:39.080Z,21.00
2019-03-08T01:07:11.701Z,22.83
2019-03-08T01:09:41.541Z,24.53
2019-03-08T01:12:22.654Z,25.10
2019-03-08T01:15:01.775Z,23.23
2019-03-08T01:17:35.987Z,23.37
2019-03-08T01:20:06.003Z,25.80
2019-03-08T01:22:38.073Z,24.97
2019-03-08T01:25:08.335Z,23.80
2019-03-08T01:27:38.735Z,24.87
2019-03-08T01:30:13.519Z,24.67
2019-03-08T01:32:46.065Z,23.87
2019-03-08T01:35:19.726Z,22.07
2019-03-08T01:37:52.293Z,24.03
2019-03-08T01:40:27.681Z,26.17
2019-03-08T01:43:03.066Z,28.17
2019-03-08T01:45:39.498Z,25.00
2019-03-08T01:48:09.752Z,24.17
2019-03-08T01:50:48.958Z,25.47
2019-03-08T01:53:21.361Z,25.30
2019-03-08T01:55:56.602Z,23.63
2019-03-08T01:58:50.374Z,24.67
2019-03-08T02:07:45.070Z,20.87
2019-03-08T02:13:21.167Z,17.27
2019-03-08T02:19:33.745Z,19.67
2019-03-08T02:21:40.238Z,15.93
2019-03-08T02:33:22.262Z,14.50
2019-03-08T02:36:04.851Z,14.50
2019-03-08T02:42:26.896Z,14.03
2019-03-08T02:45:04.478Z,13.47
2019-03-08T02:47:46.244Z,12.00
2019-03-08T02:59:05.262Z,11.90
2019-03-08T03:07:40.256Z,11.67
2019-03-08T03:10:14.840Z,13.33
2019-03-08T03:12:49.841Z,14.50
2019-03-08T03:15:23.203Z,13.83
2019-03-08T03:17:55.333Z,11.57
2019-03-08T03:20:34.725Z,15.67
2019-03-08T03:24:11.783Z,11.80
2019-03-08T03:27:01.231Z,15.37
2019-03-08T03:29:25.300Z,11.60
2019-03-08T03:32:03.647Z,13.17
2019-03-08T03:34:45.164Z,12.43
2019-03-08T03:43:19.748Z,11.47
2019-03-08T03:49:41.371Z,13.43
2019-03-08T04:01:40.556Z,12.07
2019-03-08T04:04:14.174Z,12.73
2019-03-08T04:06:47.349Z,14.27
2019-03-08T04:09:19.331Z,12.10
2019-03-08T04:11:49.218Z,12.80
2019-03-08T04:14:24.456Z,11.80
2019-03-08T04:17:04.591Z,12.57
2019-03-08T04:19:33.140Z,13.43
2019-03-08T04:22:11.534Z,14.57
2019-03-08T04:24:44.092Z,14.90
2019-03-08T04:27:22.890Z,13.47
2019-03-08T04:29:58.790Z,12.47
2019-03-08T04:32:39.822Z,11.23
2019-03-08T04:38:05.705Z,18.13
2019-03-08T04:40:39.274Z,12.33
2019-03-08T04:43:12.000Z,12.43
2019-03-08T04:45:42.402Z,15.00
2019-03-08T04:48:13.912Z,11.97
2019-03-08T04:50:49.727Z,14.17
2019-03-08T04:53:18.803Z,13.93
2019-03-08T04:55:47.359Z,11.13
2019-03-08T04:58:19.386Z,11.57
2019-03-08T05:00:55.718Z,12.13
2019-03-08T05:03:30.913Z,10.73
2019-03-08T05:06:05.778Z,10.50
2019-03-08T05:08:32.534Z,11.27
2019-03-08T05:11:02.734Z,9.60
2019-03-08T05:13:31.529Z,9.97
2019-03-08T05:16:05.618Z,11.43
2019-03-08T05:21:50.740Z,9.30
2019-03-08T05:24:29.434Z,12.20
2019-03-08T05:27:11.182Z,13.47
2019-03-08T05:29:45.036Z,11.80
2019-03-08T05:32:16.708Z,9.77
2019-03-08T05:34:47.121Z,10.90
2019-03-08T05:37:18.017Z,8.93
2019-03-08T05:43:29.671Z,9.08
2019-03-08T05:46:21.971Z,11.57
2019-03-08T05:48:49.348Z,11.27
2019-03-08T05:51:17.958Z,8.33
2019-03-08T05:53:48.170Z,9.60
2019-03-08T05:56:25.324Z,10.57
2019-03-08T05:58:59.658Z,8.47
2019-03-08T06:01:31.320Z,9.33
2019-03-08T06:04:04.939Z,8.87
2019-03-08T06:06:35.161Z,8.63
2019-03-08T06:09:07.092Z,10.67
2019-03-08T06:11:37.832Z,9.17
2019-03-08T06:14:10.902Z,7.17
2019-03-08T06:16:40.023Z,7.83
2019-03-08T06:19:13.865Z,5.67
2019-03-08T06:21:58.994Z,9.33
2019-03-08T06:27:23.401Z,9.20
2019-03-08T06:32:51.949Z,7.17
2019-03-08T06:35:29.181Z,9.23
2019-03-08T06:38:05.373Z,7.23
2019-03-08T06:40:43.178Z,6.83
2019-03-08T06:43:11.808Z,6.73
2019-03-08T06:45:44.131Z,10.80
2019-03-08T06:48:27.016Z,8.20
2019-03-08T06:51:04.981Z,7.10
2019-03-08T06:53:36.883Z,7.17
2019-03-08T06:56:10.773Z,5.73
2019-03-08T06:58:42.108Z,8.03
2019-03-08T07:01:18.509Z,6.13
2019-03-08T07:04:07.636Z,4.77
2019-03-08T07:06:53.048Z,8.30
2019-03-08T07:12:20.527Z,10.73
2019-03-08T07:15:09.591Z,10.10
2019-03-08T07:17:40.337Z,7.27
2019-03-08T07:20:28.189Z,4.77
2019-03-08T07:22:58.417Z,6.70
2019-03-08T07:25:37.099Z,7.70
2019-03-08T07:28:23.895Z,5.67
2019-03-08T07:31:12.847Z,7.00
2019-03-08T07:33:52.871Z,4.57
2019-03-08T07:36:17.795Z,6.00
2019-03-08T07:38:57.037Z,4.70
2019-03-08T07:41:45.709Z,5.00
2019-03-08T07:44:31.847Z,7.10
2019-03-08T07:47:20.833Z,8.20
2019-03-08T07:50:02.149Z,7.87
2019-03-08T07:52:35.941Z,6.47
2019-03-08T07:55:11.747Z,6.13
2019-03-08T07:57:52.785Z,7.40
2019-03-08T08:00:35.697Z,9.17
2019-03-08T08:03:12.228Z,6.23
2019-03-08T08:06:09.175Z,5.50
2019-03-08T08:08:51.170Z,4.60
2019-03-08T08:11:21.072Z,6.97
2019-03-08T08:13:55.653Z,7.20
2019-03-08T08:16:33.744Z,10.83
2019-03-08T08:19:15.836Z,4.90
2019-03-08T08:22:05.977Z,7.80
2019-03-08T08:24:45.820Z,6.13
2019-03-08T08:27:32.212Z,4.67
2019-03-08T08:30:20.208Z,6.33
2019-03-08T08:32:54.452Z,6.43
2019-03-08T08:35:37.111Z,6.20
2019-03-08T08:41:09.377Z,7.73
2019-03-08T08:43:48.532Z,4.70
2019-03-08T08:46:27.444Z,7.70
2019-03-08T08:49:15.311Z,6.57
2019-03-08T08:52:13.345Z,6.07
2019-03-08T08:54:51.544Z,4.80
2019-03-08T08:57:40.299Z,7.53
2019-03-08T09:00:33.152Z,7.10
2019-03-08T09:03:18.931Z,7.50
2019-03-08T09:06:17.027Z,8.37
2019-03-08T09:09:05.775Z,7.77
2019-03-08T09:11:56.661Z,7.97
2019-03-08T09:17:48.026Z,4.57
2019-03-08T09:20:27.315Z,8.40
2019-03-08T09:23:08.143Z,3.77
2019-03-08T09:25:49.332Z,10.47
2019-03-08T09:28:23.423Z,6.70
2019-03-08T09:31:10.187Z,3.20
2019-03-08T09:34:01.104Z,5.70
2019-03-08T09:37:01.117Z,5.53
2019-03-08T09:39:49.066Z,4.60
2019-03-08T09:42:42.770Z,4.93
2019-03-08T09:45:27.526Z,6.50
2019-03-08T09:50:59.776Z,6.90
2019-03-08T09:57:39.898Z,9.07
2019-03-08T09:59:34.376Z,7.10
2019-03-08T10:02:23.353Z,7.23
2019-03-08T10:08:17.295Z,8.20
2019-03-08T10:11:05.366Z,6.87
2019-03-08T10:13:59.635Z,4.93
2019-03-08T10:16:40.329Z,5.97
2019-03-08T10:19:19.916Z,4.17
2019-03-08T10:28:13.466Z,8.40
2019-03-08T10:30:53.905Z,4.60
2019-03-08T10:33:46.707Z,3.10
2019-03-08T10:36:35.233Z,7.47
2019-03-08T10:39:07.104Z,9.73
2019-03-08T10:41:37.287Z,6.50
2019-03-08T10:44:15.462Z,7.43
2019-03-08T10:46:49.483Z,4.47
2019-03-08T10:49:22.038Z,6.67
2019-03-08T10:51:55.140Z,7.67
2019-03-08T10:54:40.222Z,7.97
2019-03-08T10:57:10.434Z,7.03
2019-03-08T10:59:42.008Z,7.77
2019-03-08T11:02:27.060Z,4.93
2019-03-08T11:05:01.966Z,6.17
2019-03-08T11:07:37.462Z,8.13
2019-03-08T11:10:26.956Z,3.63
2019-03-08T11:13:18.614Z,4.90
2019-03-08T11:15:53.904Z,4.03
2019-03-08T11:18:36.369Z,6.73
2019-03-08T11:21:07.449Z,7.03
2019-03-08T11:23:44.147Z,10.20
2019-03-08T11:26:29.270Z,6.97
2019-03-08T11:29:08.470Z,5.40
2019-03-08T11:31:38.692Z,7.77
2019-03-08T11:34:21.571Z,4.37
2019-03-08T11:37:04.154Z,6.00
2019-03-08T11:39:36.804Z,5.33
2019-03-08T11:42:13.380Z,5.27
2019-03-08T11:45:00.930Z,6.77
2019-03-08T11:47:42.816Z,5.63
2019-03-08T11:50:18.947Z,7.20
2019-03-08T11:52:51.852Z,9.43
2019-03-08T11:55:24.762Z,9.37
2019-03-08T11:58:14.983Z,9.43
2019-03-08T12:00:49.336Z,8.80
2019-03-08T12:03:31.433Z,7.17
2019-03-08T12:06:01.828Z,3.77
2019-03-08T12:08:43.216Z,10.03
2019-03-08T12:11:29.905Z,7.70
2019-03-08T12:14:08.008Z,8.70
2019-03-08T12:16:55.652Z,7.03
2019-03-08T12:19:49.231Z,5.03
2019-03-08T12:22:19.435Z,7.57
2019-03-08T12:24:57.228Z,11.13
2019-03-08T12:27:27.614Z,7.23
2019-03-08T12:30:05.021Z,9.90
2019-03-08T12:32:40.857Z,6.37
2019-03-08T12:35:23.820Z,11.90
2019-03-08T12:37:54.007Z,7.53
2019-03-08T12:40:41.328Z,6.83
2019-03-08T12:43:28.389Z,5.70
2019-03-08T12:46:07.793Z,7.87
2019-03-08T12:48:43.784Z,5.40
2019-03-08T12:51:31.795Z,9.47
2019-03-08T12:54:19.544Z,6.83
2019-03-08T12:57:06.294Z,6.93
2019-03-08T12:59:37.506Z,10.23
2019-03-08T13:02:13.579Z,7.73
2019-03-08T13:05:01.771Z,12.67
2019-03-08T13:07:34.568Z,6.93
2019-03-08T13:10:13.478Z,9.10
2019-03-08T13:12:42.403Z,7.83
2019-03-08T13:15:14.163Z,8.07
2019-03-08T13:17:42.762Z,7.53
2019-03-08T13:20:17.283Z,7.23
2019-03-08T13:22:48.423Z,8.40
2019-03-08T13:25:17.371Z,12.17
2019-03-08T13:27:47.623Z,7.37
2019-03-08T13:30:22.395Z,8.13
2019-03-08T13:32:50.998Z,4.60
2019-03-08T13:35:22.235Z,13.23
2019-03-08T13:37:52.729Z,4.93
2019-03-08T13:40:22.583Z,13.97
2019-03-08T13:42:51.186Z,4.67
2019-03-08T13:45:25.235Z,7.50
2019-03-08T13:47:56.992Z,10.43
2019-03-08T13:50:29.685Z,8.70
2019-03-08T13:52:58.358Z,11.70
2019-03-08T13:55:27.025Z,5.73
2019-03-08T13:57:55.591Z,13.13
2019-03-08T14:00:24.190Z,9.27
2019-03-08T14:02:53.760Z,9.00
2019-03-08T14:05:22.477Z,12.57
2019-03-08T14:07:53.017Z,8.40
2019-03-08T14:10:24.525Z,8.60
2019-03-08T14:12:54.822Z,12.67
2019-03-08T14:15:24.153Z,8.70
2019-03-08T14:17:58.455Z,7.57
2019-03-08T14:20:28.054Z,5.33
2019-03-08T14:22:59.770Z,7.73
2019-03-08T14:25:28.819Z,9.40
2019-03-08T14:27:58.644Z,5.33
2019-03-08T14:30:32.083Z,6.60
2019-03-08T14:33:01.824Z,9.73
2019-03-08T14:35:33.744Z,8.83
2019-03-08T14:38:03.057Z,9.57
2019-03-08T14:40:34.539Z,14.10
2019-03-08T14:43:13.081Z,8.73
2019-03-08T14:45:48.567Z,5.67
2019-03-08T14:48:17.980Z,11.77
2019-03-08T14:50:46.515Z,11.30
2019-03-08T14:53:15.297Z,10.00
2019-03-08T14:55:43.862Z,8.90
2019-03-08T14:58:15.733Z,9.47
2019-03-08T15:01:11.873Z,9.93
2019-03-08T15:04:08.147Z,9.73
2019-03-08T15:06:49.939Z,6.50
2019-03-08T15:09:18.498Z,14.17
2019-03-08T15:11:48.598Z,7.70
2019-03-08T15:14:17.218Z,11.33
2019-03-08T15:16:48.470Z,6.40
2019-03-08T15:19:20.945Z,10.67
2019-03-08T15:21:52.227Z,9.77
2019-03-08T15:24:20.771Z,10.03
2019-03-08T15:26:58.264Z,7.87
2019-03-08T15:29:26.950Z,11.70
2019-03-08T15:31:55.679Z,9.77
2019-03-08T15:34:24.315Z,8.03
2019-03-08T15:36:52.823Z,6.73
2019-03-08T15:39:24.232Z,12.67
2019-03-08T15:41:52.831Z,6.83
2019-03-08T15:44:24.520Z,8.90
2019-03-08T15:46:51.895Z,11.00
2019-03-08T15:49:22.540Z,5.33
2019-03-08T15:51:52.767Z,7.07
2019-03-08T15:54:22.723Z,8.90
2019-03-08T15:56:51.376Z,5.43
2019-03-08T15:59:20.591Z,7.60
2019-03-08T16:01:49.151Z,11.80
2019-03-08T16:04:19.073Z,8.97
2019-03-08T16:06:49.223Z,5.03
2019-03-08T16:09:18.065Z,10.70
2019-03-08T16:11:47.886Z,12.23
2019-03-08T16:14:16.614Z,12.13
2019-03-08T16:16:45.484Z,9.97
2019-03-08T16:19:14.087Z,8.37
2019-03-08T16:21:42.621Z,8.87
2019-03-08T16:24:11.296Z,8.37
2019-03-08T16:26:39.858Z,7.67
2019-03-08T16:29:08.495Z,9.53
2019-03-08T16:31:41.620Z,11.53
2019-03-08T16:34:11.627Z,7.77
2019-03-08T16:36:41.619Z,10.00
2019-03-08T16:39:26.879Z,12.63
2019-03-08T16:42:11.563Z,13.90
2019-03-08T16:44:59.450Z,11.33
2019-03-08T16:47:32.232Z,11.27
2019-03-08T16:50:08.075Z,7.97
2019-03-08T16:52:38.201Z,12.63
2019-03-08T16:55:28.927Z,16.47
2019-03-08T16:58:10.946Z,20.43
2019-03-08T17:00:48.469Z,22.80
2019-03-08T17:03:27.502Z,19.07
2019-03-08T17:06:03.588Z,20.27
2019-03-08T17:08:50.789Z,17.27
2019-03-08T17:11:23.845Z,10.73
2019-03-08T17:14:12.343Z,15.80
2019-03-08T17:16:42.692Z,13.87
2019-03-08T17:19:18.923Z,12.23
2019-03-08T17:21:49.449Z,11.87
2019-03-08T17:24:25.449Z,12.03
2019-03-08T17:27:13.496Z,13.20
2019-03-08T17:29:43.900Z,19.30
2019-03-08T17:32:14.087Z,9.90
2019-03-08T17:34:45.675Z,11.60
2019-03-08T17:37:21.626Z,10.93
2019-03-08T17:40:00.382Z,11.03
2019-03-08T17:42:33.421Z,13.77
2019-03-08T17:45:04.680Z,14.17
2019-03-08T17:47:39.252Z,20.60
2019-03-08T17:50:12.322Z,14.33
2019-03-08T17:52:58.941Z,14.13
2019-03-08T17:55:34.850Z,10.80
2019-03-08T17:58:16.970Z,9.13
2019-03-08T18:00:58.680Z,7.57
2019-03-08T18:03:40.477Z,10.10
2019-03-08T18:06:22.655Z,7.63
2019-03-08T18:08:58.457Z,10.67
2019-03-08T18:11:40.555Z,8.30
2019-03-08T18:14:10.825Z,10.37
2019-03-08T18:16:46.533Z,12.20
2019-03-08T18:19:16.748Z,9.47
2019-03-08T18:21:51.907Z,9.50
2019-03-08T18:24:38.384Z,10.30
2019-03-08T18:27:23.512Z,10.53
2019-03-08T18:30:05.706Z,10.50
2019-03-08T18:32:39.325Z,11.90
2019-03-08T18:35:15.774Z,13.60
2019-03-08T18:38:00.761Z,8.33
2019-03-08T18:40:52.374Z,11.50
2019-03-08T18:43:29.927Z,12.67
2019-03-08T18:46:09.744Z,13.07
2019-03-08T18:48:47.952Z,9.97
2019-03-08T18:51:23.574Z,16.37
2019-03-08T18:53:55.332Z,9.90
2019-03-08T18:59:34.476Z,11.60
2019-03-08T19:02:23.955Z,12.17
2019-03-08T19:04:59.466Z,14.13
2019-03-08T19:07:32.467Z,12.80
2019-03-08T19:10:23.796Z,11.37
2019-03-08T19:12:54.105Z,12.43
2019-03-08T19:15:24.314Z,15.80
2019-03-08T19:17:57.078Z,15.93
2019-03-08T19:20:35.283Z,13.77
2019-03-08T19:23:30.214Z,15.47
2019-03-08T19:26:05.031Z,12.90
2019-03-08T19:34:47.675Z,16.93
2019-03-08T19:37:26.108Z,26.07
2019-03-08T19:40:43.187Z,16.33
2019-03-08T19:43:13.051Z,16.10
2019-03-08T19:49:01.090Z,12.27
2019-03-08T19:51:38.322Z,15.03
2019-03-08T19:54:16.636Z,15.73
2019-03-08T19:56:52.324Z,14.00
2019-03-08T19:59:25.784Z,15.90
2019-03-08T20:02:07.874Z,15.53
2019-03-08T20:04:55.029Z,18.40
2019-03-08T20:07:25.824Z,11.97
2019-03-08T20:10:07.364Z,13.93
2019-03-08T20:15:50.100Z,17.70
2019-03-08T20:18:25.278Z,15.20
2019-03-08T20:21:07.014Z,17.03
2019-03-08T20:23:38.478Z,16.07
2019-03-08T20:26:12.345Z,17.90
2019-03-08T20:28:46.975Z,17.43
2019-03-08T20:31:19.826Z,16.67
2019-03-08T20:33:56.073Z,15.10
2019-03-08T20:36:26.344Z,17.73
2019-03-08T20:38:59.220Z,16.73
2019-03-08T20:41:29.414Z,15.07
2019-03-08T20:44:06.546Z,19.50
2019-03-08T20:46:38.965Z,14.47
2019-03-08T20:49:07.520Z,15.93
2019-03-08T20:51:36.098Z,15.43
2019-03-08T20:54:07.293Z,14.67
2019-03-08T20:56:35.941Z,16.23
2019-03-08T20:59:06.461Z,17.23
2019-03-08T21:01:37.582Z,18.67
2019-03-08T21:04:06.195Z,19.13
2019-03-08T21:06:34.872Z,17.77
2019-03-08T21:09:04.679Z,15.87
2019-03-08T21:11:33.267Z,16.90
2019-03-08T21:14:01.834Z,18.70
2019-03-08T21:16:30.409Z,17.57
2019-03-08T21:18:59.063Z,23.30
2019-03-08T21:21:27.618Z,16.53
2019-03-08T21:23:56.181Z,17.87
2019-03-08T21:26:24.963Z,18.70
2019-03-08T21:28:53.651Z,17.30
2019-03-08T21:31:22.227Z,17.87
2019-03-08T21:33:50.804Z,18.00
2019-03-08T21:36:19.643Z,17.37
2019-03-08T21:38:50.915Z,19.43
2019-03-08T21:41:19.514Z,18.93
2019-03-08T21:43:48.066Z,20.07
2019-03-08T21:46:16.616Z,17.50
2019-03-08T21:48:46.220Z,20.30
2019-03-08T21:51:14.846Z,15.57
2019-03-08T21:53:43.416Z,16.37
2019-03-08T21:56:12.052Z,19.20
2019-03-08T21:58:40.620Z,23.10
2019-03-08T22:01:09.188Z,20.10
2019-03-08T22:03:43.453Z,15.83
2019-03-08T22:06:13.297Z,17.70
2019-03-08T22:08:53.936Z,18.63
2019-03-08T22:11:24.192Z,20.13
2019-03-08T22:13:52.740Z,17.10
2019-03-08T22:16:21.326Z,22.43
2019-03-08T22:18:49.962Z,25.97
2019-03-08T22:21:19.450Z,19.47
2019-03-08T22:23:51.209Z,18.30
2019-03-08T22:26:21.321Z,18.87
2019-03-08T22:28:50.153Z,24.00
2019-03-08T22:31:18.725Z,16.67
2019-03-08T22:33:47.276Z,19.80
2019-03-08T22:36:15.915Z,19.47
2019-03-08T22:38:44.976Z,22.23
2019-03-08T22:41:15.179Z,20.97
2019-03-08T22:43:45.399Z,27.17
2019-03-08T22:46:15.580Z,22.40
2019-03-08T22:48:44.185Z,24.67
2019-03-08T22:51:14.795Z,23.00
2019-03-08T22:53:45.085Z,20.87
2019-03-08T22:56:14.124Z,20.60
2019-03-08T22:58:42.677Z,24.67
2019-03-08T23:01:14.647Z,19.03
2019-03-08T23:03:44.923Z,18.60
2019-03-08T23:06:13.781Z,18.87
2019-03-08T23:08:42.331Z,20.77
2019-03-08T23:11:11.163Z,21.90
2019-03-08T23:13:42.003Z,21.97
2019-03-08T23:16:12.382Z,23.50
2019-03-08T23:18:41.577Z,16.87
2019-03-08T23:21:10.200Z,20.07
2019-03-08T23:23:38.752Z,25.47
2019-03-08T23:26:19.455Z,22.53
2019-03-08T23:28:52.519Z,22.07
2019-03-08T23:31:22.773Z,19.63
2019-03-08T23:33:51.267Z,21.37
2019-03-08T23:36:19.838Z,25.93
2019-03-08T23:38:48.570Z,19.80
2019-03-08T23:41:17.159Z,25.73
2019-03-08T23:43:45.732Z,26.10
2019-03-08T23:46:14.292Z,26.27
2019-03-08T23:48:42.864Z,22.20
2019-03-08T23:51:11.472Z,23.13
2019-03-08T23:53:40.059Z,24.77
2019-03-08T23:56:08.631Z,21.63
2019-03-08T23:58:38.019Z,23.40
